sensor_id;sensor_type;location;lat;lon;timestamp;P1;durP1;ratioP1;P2;durP2;ratioP2
37065;SDS011;22981;43.080;25.550;2024-01-11T00:00:05;21.17;;;13.03;;
37065;SDS011;22981;43.080;25.550;2024-01-11T00:02:33;23.18;;;12.65;;
37065;SDS011;22981;43.080;25.550;2024-01-11T00:05:01;26.50;;;14.28;;
37065;SDS011;22981;43.080;25.550;2024-01-11T00:07:28;23.65;;;13.95;;
37065;SDS011;22981;43.080;25.550;2024-01-11T00:09:56;23.55;;;14.13;;
37065;SDS011;22981;43.080;25.550;2024-01-11T00:12:23;20.55;;;13.53;;
37065;SDS011;22981;43.080;25.550;2024-01-11T00:14:51;29.98;;;19.07;;
37065;SDS011;22981;43.080;25.550;2024-01-11T00:17:18;24.50;;;14.78;;
37065;SDS011;22981;43.080;25.550;2024-01-11T00:19:46;24.50;;;13.90;;
37065;SDS011;22981;43.080;25.550;2024-01-11T00:22:14;25.30;;;13.93;;
37065;SDS011;22981;43.080;25.550;2024-01-11T00:24:42;26.57;;;14.38;;
37065;SDS011;22981;43.080;25.550;2024-01-11T00:27:09;23.55;;;14.18;;
37065;SDS011;22981;43.080;25.550;2024-01-11T00:29:37;26.95;;;14.20;;
37065;SDS011;22981;43.080;25.550;2024-01-11T00:32:04;21.40;;;13.50;;
37065;SDS011;22981;43.080;25.550;2024-01-11T00:34:32;27.22;;;14.63;;
37065;SDS011;22981;43.080;25.550;2024-01-11T00:37:01;22.30;;;13.25;;
37065;SDS011;22981;43.080;25.550;2024-01-11T00:39:29;23.87;;;14.80;;
37065;SDS011;22981;43.080;25.550;2024-01-11T00:41:56;22.87;;;14.60;;
37065;SDS011;22981;43.080;25.550;2024-01-11T00:44:24;31.97;;;17.82;;
37065;SDS011;22981;43.080;25.550;2024-01-11T00:46:51;21.87;;;14.03;;
37065;SDS011;22981;43.080;25.550;2024-01-11T00:49:20;26.80;;;16.17;;
37065;SDS011;22981;43.080;25.550;2024-01-11T00:51:48;25.25;;;15.83;;
37065;SDS011;22981;43.080;25.550;2024-01-11T00:54:15;28.38;;;17.37;;
37065;SDS011;22981;43.080;25.550;2024-01-11T00:56:43;29.30;;;17.27;;
37065;SDS011;22981;43.080;25.550;2024-01-11T00:59:10;30.70;;;18.27;;
37065;SDS011;22981;43.080;25.550;2024-01-11T01:01:38;33.90;;;19.20;;
37065;SDS011;22981;43.080;25.550;2024-01-11T01:04:05;30.85;;;19.17;;
37065;SDS011;22981;43.080;25.550;2024-01-11T01:06:33;32.60;;;18.17;;
37065;SDS011;22981;43.080;25.550;2024-01-11T01:09:00;30.40;;;18.65;;
37065;SDS011;22981;43.080;25.550;2024-01-11T01:11:28;33.73;;;20.32;;
37065;SDS011;22981;43.080;25.550;2024-01-11T01:13:56;34.65;;;21.15;;
37065;SDS011;22981;43.080;25.550;2024-01-11T01:16:23;34.85;;;20.68;;
37065;SDS011;22981;43.080;25.550;2024-01-11T01:18:51;37.08;;;21.07;;
37065;SDS011;22981;43.080;25.550;2024-01-11T01:21:18;38.78;;;22.15;;
37065;SDS011;22981;43.080;25.550;2024-01-11T01:23:46;42.83;;;25.12;;
37065;SDS011;22981;43.080;25.550;2024-01-11T01:26:13;47.90;;;27.90;;
37065;SDS011;22981;43.080;25.550;2024-01-11T01:28:41;46.98;;;25.10;;
37065;SDS011;22981;43.080;25.550;2024-01-11T01:31:09;45.00;;;23.02;;
37065;SDS011;22981;43.080;25.550;2024-01-11T01:33:37;39.90;;;23.55;;
37065;SDS011;22981;43.080;25.550;2024-01-11T01:36:12;44.73;;;22.55;;
37065;SDS011;22981;43.080;25.550;2024-01-11T01:38:39;41.08;;;22.55;;
37065;SDS011;22981;43.080;25.550;2024-01-11T01:41:07;37.00;;;20.68;;
37065;SDS011;22981;43.080;25.550;2024-01-11T01:43:34;36.25;;;20.43;;
37065;SDS011;22981;43.080;25.550;2024-01-11T01:46:02;38.15;;;20.65;;
37065;SDS011;22981;43.080;25.550;2024-01-11T01:48:32;38.67;;;20.95;;
37065;SDS011;22981;43.080;25.550;2024-01-11T01:51:00;40.25;;;21.02;;
37065;SDS011;22981;43.080;25.550;2024-01-11T01:53:29;37.95;;;21.97;;
37065;SDS011;22981;43.080;25.550;2024-01-11T01:55:57;36.55;;;21.50;;
37065;SDS011;22981;43.080;25.550;2024-01-11T01:58:25;34.48;;;21.52;;
37065;SDS011;22981;43.080;25.550;2024-01-11T02:00:52;39.45;;;22.52;;
37065;SDS011;22981;43.080;25.550;2024-01-11T02:03:20;34.53;;;20.35;;
37065;SDS011;22981;43.080;25.550;2024-01-11T02:05:49;35.13;;;20.02;;
37065;SDS011;22981;43.080;25.550;2024-01-11T02:08:17;36.77;;;21.77;;
37065;SDS011;22981;43.080;25.550;2024-01-11T02:13:16;38.58;;;22.22;;
37065;SDS011;22981;43.080;25.550;2024-01-11T02:15:45;39.92;;;22.98;;
37065;SDS011;22981;43.080;25.550;2024-01-11T02:18:12;38.25;;;23.75;;
37065;SDS011;22981;43.080;25.550;2024-01-11T02:20:40;35.80;;;23.52;;
37065;SDS011;22981;43.080;25.550;2024-01-11T02:23:08;71.00;;;37.35;;
37065;SDS011;22981;43.080;25.550;2024-01-11T02:25:38;46.98;;;29.72;;
37065;SDS011;22981;43.080;25.550;2024-01-11T02:28:05;54.77;;;33.28;;
37065;SDS011;22981;43.080;25.550;2024-01-11T02:30:34;55.23;;;31.35;;
37065;SDS011;22981;43.080;25.550;2024-01-11T02:33:01;58.05;;;32.45;;
37065;SDS011;22981;43.080;25.550;2024-01-11T02:35:30;51.53;;;31.68;;
37065;SDS011;22981;43.080;25.550;2024-01-11T02:37:59;52.08;;;32.48;;
37065;SDS011;22981;43.080;25.550;2024-01-11T02:40:27;50.38;;;30.72;;
37065;SDS011;22981;43.080;25.550;2024-01-11T02:42:55;48.33;;;32.40;;
37065;SDS011;22981;43.080;25.550;2024-01-11T02:45:23;53.98;;;31.80;;
37065;SDS011;22981;43.080;25.550;2024-01-11T02:47:50;59.25;;;32.65;;
37065;SDS011;22981;43.080;25.550;2024-01-11T02:50:18;45.17;;;28.42;;
37065;SDS011;22981;43.080;25.550;2024-01-11T02:52:46;47.00;;;29.77;;
37065;SDS011;22981;43.080;25.550;2024-01-11T02:55:13;40.08;;;26.97;;
37065;SDS011;22981;43.080;25.550;2024-01-11T02:57:41;45.17;;;26.68;;
37065;SDS011;22981;43.080;25.550;2024-01-11T03:00:08;37.70;;;26.42;;
37065;SDS011;22981;43.080;25.550;2024-01-11T03:02:37;40.15;;;26.90;;
37065;SDS011;22981;43.080;25.550;2024-01-11T03:05:04;39.05;;;25.02;;
37065;SDS011;22981;43.080;25.550;2024-01-11T03:07:32;38.35;;;26.17;;
37065;SDS011;22981;43.080;25.550;2024-01-11T03:09:59;41.53;;;26.07;;
37065;SDS011;22981;43.080;25.550;2024-01-11T03:12:27;41.25;;;24.50;;
37065;SDS011;22981;43.080;25.550;2024-01-11T03:14:54;37.85;;;26.87;;
37065;SDS011;22981;43.080;25.550;2024-01-11T03:17:22;36.13;;;25.23;;
37065;SDS011;22981;43.080;25.550;2024-01-11T03:19:50;36.23;;;24.90;;
37065;SDS011;22981;43.080;25.550;2024-01-11T03:22:17;34.95;;;23.67;;
37065;SDS011;22981;43.080;25.550;2024-01-11T03:24:45;36.20;;;23.15;;
37065;SDS011;22981;43.080;25.550;2024-01-11T03:27:12;33.55;;;23.05;;
37065;SDS011;22981;43.080;25.550;2024-01-11T03:29:40;33.73;;;22.62;;
37065;SDS011;22981;43.080;25.550;2024-01-11T03:32:07;33.55;;;22.93;;
37065;SDS011;22981;43.080;25.550;2024-01-11T03:34:37;36.08;;;23.18;;
37065;SDS011;22981;43.080;25.550;2024-01-11T03:37:04;36.80;;;23.50;;
37065;SDS011;22981;43.080;25.550;2024-01-11T03:39:32;38.02;;;24.60;;
37065;SDS011;22981;43.080;25.550;2024-01-11T03:42:01;35.45;;;24.15;;
37065;SDS011;22981;43.080;25.550;2024-01-11T03:44:30;35.40;;;23.47;;
37065;SDS011;22981;43.080;25.550;2024-01-11T03:46:57;32.63;;;21.73;;
37065;SDS011;22981;43.080;25.550;2024-01-11T03:49:25;33.42;;;21.52;;
37065;SDS011;22981;43.080;25.550;2024-01-11T03:51:52;36.93;;;24.92;;
37065;SDS011;22981;43.080;25.550;2024-01-11T03:54:20;39.50;;;25.37;;
37065;SDS011;22981;43.080;25.550;2024-01-11T03:56:47;24.95;;;17.17;;
37065;SDS011;22981;43.080;25.550;2024-01-11T03:59:15;24.07;;;14.85;;
37065;SDS011;22981;43.080;25.550;2024-01-11T04:01:43;20.40;;;13.95;;
37065;SDS011;22981;43.080;25.550;2024-01-11T04:04:10;20.85;;;13.62;;
37065;SDS011;22981;43.080;25.550;2024-01-11T04:06:38;27.25;;;18.37;;
37065;SDS011;22981;43.080;25.550;2024-01-11T04:09:06;30.60;;;21.73;;
37065;SDS011;22981;43.080;25.550;2024-01-11T04:11:34;32.50;;;21.55;;
37065;SDS011;22981;43.080;25.550;2024-01-11T04:14:01;34.73;;;22.90;;
37065;SDS011;22981;43.080;25.550;2024-01-11T04:16:29;24.00;;;16.20;;
37065;SDS011;22981;43.080;25.550;2024-01-11T04:18:57;17.35;;;12.13;;
37065;SDS011;22981;43.080;25.550;2024-01-11T04:21:25;19.40;;;12.85;;
37065;SDS011;22981;43.080;25.550;2024-01-11T04:23:56;18.32;;;12.78;;
37065;SDS011;22981;43.080;25.550;2024-01-11T04:26:24;23.62;;;15.18;;
37065;SDS011;22981;43.080;25.550;2024-01-11T04:28:52;22.32;;;13.60;;
37065;SDS011;22981;43.080;25.550;2024-01-11T04:31:20;17.92;;;10.75;;
37065;SDS011;22981;43.080;25.550;2024-01-11T04:33:47;15.58;;;10.18;;
37065;SDS011;22981;43.080;25.550;2024-01-11T04:36:15;15.48;;;10.90;;
37065;SDS011;22981;43.080;25.550;2024-01-11T04:38:42;17.98;;;11.68;;
37065;SDS011;22981;43.080;25.550;2024-01-11T04:41:11;24.82;;;16.82;;
37065;SDS011;22981;43.080;25.550;2024-01-11T04:43:40;27.37;;;18.85;;
37065;SDS011;22981;43.080;25.550;2024-01-11T04:48:47;28.10;;;18.23;;
37065;SDS011;22981;43.080;25.550;2024-01-11T04:51:16;21.48;;;14.70;;
37065;SDS011;22981;43.080;25.550;2024-01-11T04:53:44;48.10;;;30.40;;
37065;SDS011;22981;43.080;25.550;2024-01-11T04:56:17;18.12;;;12.50;;
37065;SDS011;22981;43.080;25.550;2024-01-11T04:58:42;18.42;;;13.30;;
37065;SDS011;22981;43.080;25.550;2024-01-11T05:01:12;21.37;;;14.80;;
37065;SDS011;22981;43.080;25.550;2024-01-11T05:03:40;20.85;;;14.43;;
37065;SDS011;22981;43.080;25.550;2024-01-11T05:06:08;19.07;;;14.25;;
37065;SDS011;22981;43.080;25.550;2024-01-11T05:08:44;20.85;;;13.43;;
37065;SDS011;22981;43.080;25.550;2024-01-11T05:11:16;22.30;;;12.68;;
37065;SDS011;22981;43.080;25.550;2024-01-11T05:13:51;19.05;;;12.37;;
37065;SDS011;22981;43.080;25.550;2024-01-11T05:16:22;18.98;;;12.28;;
37065;SDS011;22981;43.080;25.550;2024-01-11T05:18:51;18.80;;;12.53;;
37065;SDS011;22981;43.080;25.550;2024-01-11T05:21:21;23.15;;;16.15;;
37065;SDS011;22981;43.080;25.550;2024-01-11T05:23:49;25.68;;;19.75;;
37065;SDS011;22981;43.080;25.550;2024-01-11T05:26:18;48.08;;;30.27;;
37065;SDS011;22981;43.080;25.550;2024-01-11T05:28:46;41.00;;;27.27;;
37065;SDS011;22981;43.080;25.550;2024-01-11T05:31:14;28.47;;;19.12;;
37065;SDS011;22981;43.080;25.550;2024-01-11T05:33:42;33.28;;;21.60;;
37065;SDS011;22981;43.080;25.550;2024-01-11T05:36:09;30.90;;;22.75;;
37065;SDS011;22981;43.080;25.550;2024-01-11T05:38:38;31.82;;;23.73;;
37065;SDS011;22981;43.080;25.550;2024-01-11T05:41:06;34.08;;;23.18;;
37065;SDS011;22981;43.080;25.550;2024-01-11T05:43:34;19.00;;;13.70;;
37065;SDS011;22981;43.080;25.550;2024-01-11T05:46:01;16.42;;;11.65;;
37065;SDS011;22981;43.080;25.550;2024-01-11T05:48:29;38.98;;;24.95;;
37065;SDS011;22981;43.080;25.550;2024-01-11T05:50:56;21.73;;;14.50;;
37065;SDS011;22981;43.080;25.550;2024-01-11T05:53:25;26.23;;;17.55;;
37065;SDS011;22981;43.080;25.550;2024-01-11T05:55:53;23.42;;;16.20;;
37065;SDS011;22981;43.080;25.550;2024-01-11T05:58:20;21.07;;;15.40;;
37065;SDS011;22981;43.080;25.550;2024-01-11T06:00:48;27.60;;;17.48;;
37065;SDS011;22981;43.080;25.550;2024-01-11T06:03:15;27.48;;;17.95;;
37065;SDS011;22981;43.080;25.550;2024-01-11T06:05:43;38.42;;;25.90;;
37065;SDS011;22981;43.080;25.550;2024-01-11T06:08:11;41.92;;;27.32;;
37065;SDS011;22981;43.080;25.550;2024-01-11T06:10:39;83.85;;;51.68;;
37065;SDS011;22981;43.080;25.550;2024-01-11T06:13:07;26.35;;;18.12;;
37065;SDS011;22981;43.080;25.550;2024-01-11T06:15:35;52.95;;;35.38;;
37065;SDS011;22981;43.080;25.550;2024-01-11T06:20:30;87.22;;;59.63;;
37065;SDS011;22981;43.080;25.550;2024-01-11T06:22:58;57.15;;;41.88;;
37065;SDS011;22981;43.080;25.550;2024-01-11T06:25:25;33.45;;;25.00;;
37065;SDS011;22981;43.080;25.550;2024-01-11T06:27:53;38.70;;;30.97;;
37065;SDS011;22981;43.080;25.550;2024-01-11T06:30:21;31.23;;;22.02;;
37065;SDS011;22981;43.080;25.550;2024-01-11T06:32:48;25.45;;;18.12;;
37065;SDS011;22981;43.080;25.550;2024-01-11T06:35:16;27.93;;;20.60;;
37065;SDS011;22981;43.080;25.550;2024-01-11T06:37:44;33.70;;;24.72;;
37065;SDS011;22981;43.080;25.550;2024-01-11T06:40:11;41.28;;;28.35;;
37065;SDS011;22981;43.080;25.550;2024-01-11T06:42:39;33.95;;;22.67;;
37065;SDS011;22981;43.080;25.550;2024-01-11T06:45:07;39.83;;;27.85;;
37065;SDS011;22981;43.080;25.550;2024-01-11T06:47:35;46.92;;;30.77;;
37065;SDS011;22981;43.080;25.550;2024-01-11T06:50:03;48.38;;;31.97;;
37065;SDS011;22981;43.080;25.550;2024-01-11T06:52:30;43.40;;;30.52;;
37065;SDS011;22981;43.080;25.550;2024-01-11T06:54:58;42.50;;;28.30;;
37065;SDS011;22981;43.080;25.550;2024-01-11T06:57:26;39.58;;;23.50;;
37065;SDS011;22981;43.080;25.550;2024-01-11T06:59:54;25.85;;;18.25;;
37065;SDS011;22981;43.080;25.550;2024-01-11T07:02:22;24.57;;;17.17;;
37065;SDS011;22981;43.080;25.550;2024-01-11T07:04:49;31.87;;;21.27;;
37065;SDS011;22981;43.080;25.550;2024-01-11T07:07:17;30.25;;;21.35;;
37065;SDS011;22981;43.080;25.550;2024-01-11T07:09:44;35.13;;;24.05;;
37065;SDS011;22981;43.080;25.550;2024-01-11T07:12:12;32.17;;;21.45;;
37065;SDS011;22981;43.080;25.550;2024-01-11T07:14:39;36.55;;;25.05;;
37065;SDS011;22981;43.080;25.550;2024-01-11T07:17:08;41.70;;;26.87;;
37065;SDS011;22981;43.080;25.550;2024-01-11T07:19:36;41.48;;;28.42;;
37065;SDS011;22981;43.080;25.550;2024-01-11T07:22:03;41.05;;;28.57;;
37065;SDS011;22981;43.080;25.550;2024-01-11T07:24:31;41.98;;;29.95;;
37065;SDS011;22981;43.080;25.550;2024-01-11T07:27:00;44.35;;;29.60;;
37065;SDS011;22981;43.080;25.550;2024-01-11T07:29:28;42.33;;;29.72;;
37065;SDS011;22981;43.080;25.550;2024-01-11T07:31:55;44.42;;;30.05;;
37065;SDS011;22981;43.080;25.550;2024-01-11T07:34:23;37.03;;;24.98;;
37065;SDS011;22981;43.080;25.550;2024-01-11T07:36:51;31.90;;;23.22;;
37065;SDS011;22981;43.080;25.550;2024-01-11T07:39:19;41.90;;;29.55;;
37065;SDS011;22981;43.080;25.550;2024-01-11T07:41:48;48.28;;;31.20;;
37065;SDS011;22981;43.080;25.550;2024-01-11T07:44:15;52.83;;;33.70;;
37065;SDS011;22981;43.080;25.550;2024-01-11T07:46:44;42.23;;;28.70;;
37065;SDS011;22981;43.080;25.550;2024-01-11T07:49:11;47.27;;;29.67;;
37065;SDS011;22981;43.080;25.550;2024-01-11T07:51:39;50.52;;;32.03;;
37065;SDS011;22981;43.080;25.550;2024-01-11T07:54:06;51.23;;;29.42;;
37065;SDS011;22981;43.080;25.550;2024-01-11T07:56:34;54.50;;;34.80;;
37065;SDS011;22981;43.080;25.550;2024-01-11T07:59:02;47.55;;;30.82;;
37065;SDS011;22981;43.080;25.550;2024-01-11T08:01:30;45.67;;;30.37;;
37065;SDS011;22981;43.080;25.550;2024-01-11T08:03:59;41.73;;;28.12;;
37065;SDS011;22981;43.080;25.550;2024-01-11T08:06:28;44.25;;;26.75;;
37065;SDS011;22981;43.080;25.550;2024-01-11T08:08:56;44.38;;;26.30;;
37065;SDS011;22981;43.080;25.550;2024-01-11T08:11:23;44.85;;;27.98;;
37065;SDS011;22981;43.080;25.550;2024-01-11T08:13:51;48.42;;;29.35;;
37065;SDS011;22981;43.080;25.550;2024-01-11T08:16:20;51.68;;;29.98;;
37065;SDS011;22981;43.080;25.550;2024-01-11T08:18:48;44.08;;;28.62;;
37065;SDS011;22981;43.080;25.550;2024-01-11T08:21:16;41.42;;;27.15;;
37065;SDS011;22981;43.080;25.550;2024-01-11T08:23:45;36.55;;;22.10;;
37065;SDS011;22981;43.080;25.550;2024-01-11T08:26:14;39.53;;;24.18;;
37065;SDS011;22981;43.080;25.550;2024-01-11T08:28:44;43.87;;;25.55;;
37065;SDS011;22981;43.080;25.550;2024-01-11T08:31:11;40.00;;;24.18;;
37065;SDS011;22981;43.080;25.550;2024-01-11T08:33:39;43.95;;;25.57;;
37065;SDS011;22981;43.080;25.550;2024-01-11T08:36:07;40.55;;;27.37;;
37065;SDS011;22981;43.080;25.550;2024-01-11T08:38:35;42.05;;;26.80;;
37065;SDS011;22981;43.080;25.550;2024-01-11T08:41:04;47.40;;;28.80;;
37065;SDS011;22981;43.080;25.550;2024-01-11T08:43:32;53.87;;;31.30;;
37065;SDS011;22981;43.080;25.550;2024-01-11T08:45:59;51.45;;;31.70;;
37065;SDS011;22981;43.080;25.550;2024-01-11T08:48:27;60.43;;;32.13;;
37065;SDS011;22981;43.080;25.550;2024-01-11T08:50:55;50.67;;;31.30;;
37065;SDS011;22981;43.080;25.550;2024-01-11T08:53:23;56.50;;;33.63;;
37065;SDS011;22981;43.080;25.550;2024-01-11T08:55:50;45.65;;;30.50;;
37065;SDS011;22981;43.080;25.550;2024-01-11T08:58:18;51.00;;;31.17;;
37065;SDS011;22981;43.080;25.550;2024-01-11T09:00:46;46.33;;;30.43;;
37065;SDS011;22981;43.080;25.550;2024-01-11T09:03:14;104.60;;;57.70;;
37065;SDS011;22981;43.080;25.550;2024-01-11T09:05:42;48.30;;;30.77;;
37065;SDS011;22981;43.080;25.550;2024-01-11T09:08:10;44.20;;;28.55;;
37065;SDS011;22981;43.080;25.550;2024-01-11T09:10:37;53.45;;;33.23;;
37065;SDS011;22981;43.080;25.550;2024-01-11T09:13:06;23.92;;;16.37;;
37065;SDS011;22981;43.080;25.550;2024-01-11T09:15:36;37.73;;;25.40;;
37065;SDS011;22981;43.080;25.550;2024-01-11T09:18:03;50.40;;;28.98;;
37065;SDS011;22981;43.080;25.550;2024-01-11T09:20:31;45.50;;;29.00;;
37065;SDS011;22981;43.080;25.550;2024-01-11T09:22:59;43.50;;;27.02;;
37065;SDS011;22981;43.080;25.550;2024-01-11T09:25:28;45.00;;;29.48;;
37065;SDS011;22981;43.080;25.550;2024-01-11T09:27:56;42.20;;;27.65;;
37065;SDS011;22981;43.080;25.550;2024-01-11T09:30:24;37.85;;;26.45;;
37065;SDS011;22981;43.080;25.550;2024-01-11T09:32:52;37.80;;;22.25;;
37065;SDS011;22981;43.080;25.550;2024-01-11T09:35:24;29.35;;;20.12;;
37065;SDS011;22981;43.080;25.550;2024-01-11T09:37:51;28.10;;;20.05;;
37065;SDS011;22981;43.080;25.550;2024-01-11T09:40:19;24.72;;;17.00;;
37065;SDS011;22981;43.080;25.550;2024-01-11T09:42:47;25.72;;;18.10;;
37065;SDS011;22981;43.080;25.550;2024-01-11T09:45:16;25.97;;;17.37;;
37065;SDS011;22981;43.080;25.550;2024-01-11T09:47:44;24.50;;;15.25;;
37065;SDS011;22981;43.080;25.550;2024-01-11T09:50:13;23.57;;;14.43;;
37065;SDS011;22981;43.080;25.550;2024-01-11T09:52:47;21.60;;;13.32;;
37065;SDS011;22981;43.080;25.550;2024-01-11T09:55:16;15.78;;;11.88;;
37065;SDS011;22981;43.080;25.550;2024-01-11T09:57:45;17.77;;;11.50;;
37065;SDS011;22981;43.080;25.550;2024-01-11T10:00:16;14.65;;;10.13;;
37065;SDS011;22981;43.080;25.550;2024-01-11T10:02:50;14.30;;;9.40;;
37065;SDS011;22981;43.080;25.550;2024-01-11T10:05:13;20.92;;;14.15;;
37065;SDS011;22981;43.080;25.550;2024-01-11T10:07:42;16.37;;;10.78;;
37065;SDS011;22981;43.080;25.550;2024-01-11T10:10:12;17.37;;;11.30;;
37065;SDS011;22981;43.080;25.550;2024-01-11T10:12:43;20.70;;;11.93;;
37065;SDS011;22981;43.080;25.550;2024-01-11T10:15:10;19.75;;;13.38;;
37065;SDS011;22981;43.080;25.550;2024-01-11T10:17:42;21.20;;;13.08;;
37065;SDS011;22981;43.080;25.550;2024-01-11T10:20:13;19.82;;;13.32;;
37065;SDS011;22981;43.080;25.550;2024-01-11T10:22:43;21.80;;;14.30;;
37065;SDS011;22981;43.080;25.550;2024-01-11T10:25:12;15.83;;;12.58;;
37065;SDS011;22981;43.080;25.550;2024-01-11T10:27:41;18.57;;;13.50;;
37065;SDS011;22981;43.080;25.550;2024-01-11T10:30:16;19.00;;;13.60;;
37065;SDS011;22981;43.080;25.550;2024-01-11T10:32:43;22.87;;;13.68;;
37065;SDS011;22981;43.080;25.550;2024-01-11T10:35:11;19.65;;;13.25;;
37065;SDS011;22981;43.080;25.550;2024-01-11T10:37:39;22.27;;;13.90;;
37065;SDS011;22981;43.080;25.550;2024-01-11T10:40:07;22.67;;;13.85;;
37065;SDS011;22981;43.080;25.550;2024-01-11T10:42:43;19.73;;;12.80;;
37065;SDS011;22981;43.080;25.550;2024-01-11T10:45:10;22.22;;;14.20;;
37065;SDS011;22981;43.080;25.550;2024-01-11T10:47:38;14.43;;;8.90;;
37065;SDS011;22981;43.080;25.550;2024-01-11T10:50:08;10.65;;;7.50;;
37065;SDS011;22981;43.080;25.550;2024-01-11T10:52:39;12.35;;;8.18;;
37065;SDS011;22981;43.080;25.550;2024-01-11T10:55:07;13.25;;;8.78;;
37065;SDS011;22981;43.080;25.550;2024-01-11T10:57:35;15.55;;;9.45;;
37065;SDS011;22981;43.080;25.550;2024-01-11T11:00:05;17.07;;;12.10;;
37065;SDS011;22981;43.080;25.550;2024-01-11T11:02:34;12.80;;;9.30;;
37065;SDS011;22981;43.080;25.550;2024-01-11T11:05:03;13.72;;;8.35;;
